Time;durP1;ratioP1;P1;durP2;ratioP2;P2;SDS_P1;SDS_P2;PMS_P1;PMS_P2;Temp;Humidity;BMP_temperature;BMP_pressure;BME280_temperature;BME280_humidity;BME280_pressure;Samples;Min_cycle;Max_cycle;Signal;HPM_P1;HPM_P2
2023/06/26 00:00:27;;;;;;;5.53;5.03;;;;;;;-141.84;69.08;21265.22;4927503;29;20325;-64
2023/06/26 00:02:55;;;;;;;6.45;5.85;;;;;;;-141.84;69.49;21246.91;4924377;29;20259;-65
2023/06/26 00:05:24;;;;;;;5.97;5.22;;;;;;;-141.84;69.23;21263.19;4927735;29;20938;-63
2023/06/26 00:07:52;;;;;;;4.97;4.47;;;;;;;-141.84;69.30;21269.28;4927556;29;20675;-65
2023/06/26 00:10:21;;;;;;;5.93;5.43;;;;;;;-141.84;69.16;21257.09;4927489;29;20229;-64
2023/06/26 00:12:49;;;;;;;5.97;5.32;;;;;;;-141.84;69.12;21297.75;4920454;29;20793;-64
2023/06/26 00:15:19;;;;;;;6.05;5.55;;;;;;;-141.84;68.80;21263.19;4927156;28;20341;-65
2023/06/26 00:17:48;;;;;;;6.25;5.65;;;;;;;-141.84;67.98;21316.03;4927902;29;20300;-64
2023/06/26 00:20:18;;;;;;;6.10;5.50;;;;;;;-141.84;68.20;21297.75;4927192;29;20670;-64
2023/06/26 00:22:47;;;;;;;6.00;5.40;;;;;;;-141.84;68.37;21257.09;4918695;29;20261;-64
2023/06/26 00:25:15;;;;;;;6.10;5.50;;;;;;;-141.84;68.55;21259.13;4908809;29;20276;-64
2023/06/26 00:27:44;;;;;;;6.07;5.57;;;;;;;-141.84;69.16;21194.06;4908359;29;20258;-66
2023/06/26 00:30:13;;;;;;;6.07;5.47;;;;;;;-141.84;69.36;21214.38;4908628;29;20326;-64
2023/06/26 00:32:43;;;;;;;5.75;5.25;;;;;;;-141.84;69.52;21206.25;4907510;29;20313;-65
2023/06/26 00:35:11;;;;;;;6.38;5.65;;;;;;;-141.84;69.69;21230.66;4926837;29;20402;-65
2023/06/26 00:37:40;;;;;;;6.10;5.55;;;;;;;-141.84;69.60;21265.22;4926799;29;20645;-64
2023/06/26 00:40:09;;;;;;;6.10;5.60;;;;;;;-141.84;69.52;21204.22;4924820;29;20682;-65
2023/06/26 00:42:38;;;;;;;6.20;5.70;;;;;;;-141.84;69.73;21200.16;4918771;29;20762;-65
2023/06/26 00:45:07;;;;;;;5.85;5.35;;;;;;;-141.84;69.50;21169.66;4927598;29;20319;-65
2023/06/26 00:47:35;;;;;;;6.10;5.50;;;;;;;-141.84;69.29;21222.53;4908688;29;20643;-64
2023/06/26 00:50:07;;;;;;;5.65;5.18;;;;;;;-141.84;69.96;21208.28;4893246;29;20269;-64
2023/06/26 00:52:35;;;;;;;5.85;5.28;;;;;;;-141.84;70.25;21210.31;4881636;29;20544;-65
2023/06/26 00:55:04;;;;;;;6.95;5.30;;;;;;;-141.84;70.08;21175.75;4902850;29;20473;-64
2023/06/26 00:57:33;;;;;;;6.40;5.80;;;;;;;-141.84;69.68;21183.88;4907605;29;20301;-65
2023/06/26 01:00:03;;;;;;;6.07;5.43;;;;;;;-141.84;69.85;21216.41;4908054;29;20329;-63
2023/06/26 01:02:33;;;;;;;6.25;5.65;;;;;;;-141.84;69.82;21214.38;4899595;29;20233;-66
2023/06/26 01:05:06;;;;;;;5.95;5.45;;;;;;;-141.84;70.17;21192.03;4907290;29;20265;-65
2023/06/26 01:07:37;;;;;;;5.80;5.22;;;;;;;-141.84;69.83;21175.75;4907957;29;20675;-65
2023/06/26 01:10:07;;;;;;;6.10;5.50;;;;;;;-141.84;69.81;21220.47;4907531;29;20702;-64
2023/06/26 01:12:38;;;;;;;6.38;5.72;;;;;;;-141.84;69.67;21204.22;4900169;29;20272;-65
2023/06/26 01:15:08;;;;;;;6.07;5.53;;;;;;;-141.84;69.73;21167.63;4908032;29;20238;-64
2023/06/26 01:17:39;;;;;;;5.68;5.18;;;;;;;-141.84;70.31;21173.72;4907298;29;20274;-64
2023/06/26 01:20:10;;;;;;;6.53;5.75;;;;;;;-141.84;70.25;21200.16;4907298;29;20225;-65
2023/06/26 01:22:45;;;;;;;6.50;5.45;;;;;;;-141.84;70.91;21145.25;4900210;29;20317;-65
2023/06/26 01:25:22;;;;;;;6.85;6.10;;;;;;;-141.84;70.68;21137.13;4896540;29;20296;-66
2023/06/26 01:27:55;;;;;;;5.75;5.18;;;;;;;-141.84;71.48;21114.75;4907518;29;20603;-65
2023/06/26 01:30:26;;;;;;;6.13;5.53;;;;;;;-141.84;71.59;21135.09;4906860;29;20237;-63
2023/06/26 01:32:54;;;;;;;6.40;5.80;;;;;;;-141.84;71.36;21122.91;4910075;28;20567;-64
2023/06/26 01:35:23;;;;;;;6.30;5.70;;;;;;;-141.84;71.53;21106.63;4918898;28;20261;-64
2023/06/26 01:37:52;;;;;;;6.00;5.40;;;;;;;-141.84;71.25;21118.84;4906903;29;20265;-64
2023/06/26 01:40:20;;;;;;;6.32;5.72;;;;;;;-141.84;70.97;21098.50;4908395;29;20714;-64
2023/06/26 01:42:49;;;;;;;6.55;5.93;;;;;;;-141.84;70.80;21143.22;4900191;29;20572;-65
2023/06/26 01:45:28;;;;;;;5.97;5.38;;;;;;;-141.84;70.38;21159.50;4906832;29;20244;-65
2023/06/26 01:48:02;;;;;;;5.60;4.97;;;;;;;-141.84;71.08;21133.06;4907061;29;20304;-66
2023/06/26 01:50:34;;;;;;;6.30;5.70;;;;;;;-141.84;70.80;21088.34;4903314;29;20305;-66
2023/06/26 01:53:08;;;;;;;6.15;5.63;;;;;;;-141.84;70.64;21070.03;4906892;29;20234;-65
2023/06/26 01:55:42;;;;;;;5.88;5.38;;;;;;;-141.84;71.24;21098.50;4921911;28;20319;-63
2023/06/26 01:58:11;;;;;;;6.95;6.15;;;;;;;-141.84;70.79;21116.78;4925508;29;20775;-67
2023/06/26 02:00:42;;;;;;;6.22;5.63;;;;;;;-141.84;71.06;21031.41;4918358;29;20287;-64
2023/06/26 02:03:10;;;;;;;6.18;5.57;;;;;;;-141.84;71.11;21094.44;4926287;28;20256;-64
2023/06/26 02:05:39;;;;;;;6.07;5.57;;;;;;;-141.84;70.68;21108.66;4925522;28;20252;-65
2023/06/26 02:08:09;;;;;;;6.47;5.90;;;;;;;-141.84;71.22;21088.34;4925528;29;20308;-66
2023/06/26 02:10:38;;;;;;;6.65;5.63;;;;;;;-141.84;71.20;21110.69;4918546;28;20769;-66
2023/06/26 02:13:07;;;;;;;6.05;5.55;;;;;;;-141.84;71.66;21076.13;4925729;29;20379;-65
2023/06/26 02:15:36;;;;;;;6.28;5.68;;;;;;;-141.84;72.25;21100.53;4922105;28;20234;-65
2023/06/26 02:18:06;;;;;;;6.68;6.07;;;;;;;-141.84;72.43;21065.97;4907231;28;20297;-64
2023/06/26 02:20:34;;;;;;;6.65;5.70;;;;;;;-141.84;72.43;21033.44;4898958;28;20316;-65
2023/06/26 02:23:03;;;;;;;6.88;6.18;;;;;;;-141.84;71.88;21086.31;4906446;28;20226;-65
2023/06/26 02:25:32;;;;;;;6.25;5.75;;;;;;;-141.84;72.49;21065.97;4906465;29;20287;-65
2023/06/26 02:28:00;;;;;;;5.95;5.40;;;;;;;-141.84;72.34;21037.50;4906440;29;20324;-65
2023/06/26 02:30:29;;;;;;;6.70;6.10;;;;;;;-141.84;72.67;21035.47;4904438;29;20652;-65
2023/06/26 02:32:57;;;;;;;7.15;6.47;;;;;;;-141.84;72.92;21007.00;4911177;28;20704;-65
2023/06/26 02:35:27;;;;;;;7.13;6.07;;;;;;;-141.84;72.88;21031.41;4918868;28;20232;-64
2023/06/26 02:37:55;;;;;;;6.40;5.80;;;;;;;-141.84;73.00;21002.94;4906156;29;20320;-66
2023/06/26 02:40:24;;;;;;;6.60;6.00;;;;;;;-141.84;72.77;21021.25;4905085;29;20312;-65
2023/06/26 02:42:52;;;;;;;6.78;5.63;;;;;;;-141.84;72.77;21035.47;4897701;29;20259;-63
2023/06/26 02:45:21;;;;;;;7.40;6.40;;;;;;;-141.84;72.20;21070.03;4905673;29;20210;-65
2023/06/26 02:47:49;;;;;;;6.88;6.28;;;;;;;-141.84;72.18;21021.25;4925289;28;20233;-65
2023/06/26 02:50:18;;;;;;;6.10;5.50;;;;;;;-141.84;72.92;21000.91;4925208;29;20241;-65
2023/06/26 02:52:52;;;;;;;6.30;5.80;;;;;;;-141.84;73.43;21009.03;4917507;29;20629;-67
2023/06/26 02:55:21;;;;;;;6.97;6.28;;;;;;;-141.84;73.66;21015.16;4925132;29;20288;-65
2023/06/26 02:57:50;;;;;;;7.30;6.55;;;;;;;-141.84;73.22;20986.69;4924556;29;20229;-64
2023/06/26 03:00:19;;;;;;;7.20;6.50;;;;;;;-141.84;72.87;21021.25;4925192;29;20305;-65
2023/06/26 03:02:48;;;;;;;6.70;6.10;;;;;;;-141.84;73.06;21027.34;4920140;28;20297;-64
2023/06/26 03:05:16;;;;;;;9.68;6.45;;;;;;;-141.84;73.15;21002.94;4928302;28;20427;-65
2023/06/26 03:07:46;;;;;;;7.13;6.25;;;;;;;-141.84;72.99;21000.91;4928794;28;20700;-64
2023/06/26 03:10:15;;;;;;;7.65;6.18;;;;;;;-141.84;73.28;21023.28;4928706;28;20265;-63
2023/06/26 03:12:43;;;;;;;7.00;6.30;;;;;;;-141.84;73.25;20998.88;4921514;28;20233;-65
2023/06/26 03:15:12;;;;;;;7.03;6.43;;;;;;;-141.84;73.29;21019.22;4928822;28;20268;-65
2023/06/26 03:17:40;;;;;;;7.22;6.40;;;;;;;-141.84;73.58;21009.03;4927422;28;20257;-64
2023/06/26 03:20:10;;;;;;;9.68;6.38;;;;;;;-141.84;73.36;21007.00;4928281;28;20733;-64
2023/06/26 03:22:38;;;;;;;6.78;6.18;;;;;;;-141.84;72.53;21029.38;4919884;28;20237;-64
2023/06/26 03:25:08;;;;;;;7.38;6.38;;;;;;;-141.84;72.34;21023.28;4909502;29;20301;-65
2023/06/26 03:27:37;;;;;;;8.25;6.28;;;;;;;-141.84;72.48;21027.34;4909519;29;20317;-64
2023/06/26 03:30:06;;;;;;;6.93;6.13;;;;;;;-141.84;72.65;21023.28;4909587;29;20301;-65
2023/06/26 03:32:35;;;;;;;7.20;6.60;;;;;;;-141.84;72.52;21023.28;4906825;29;20240;-65
2023/06/26 03:35:03;;;;;;;6.50;5.90;;;;;;;-141.84;72.07;21059.88;4928475;29;20284;-65
2023/06/26 03:37:34;;;;;;;8.00;6.55;;;;;;;-141.84;72.13;21078.16;4927968;29;20237;-65
2023/06/26 03:40:04;;;;;;;7.32;6.63;;;;;;;-141.84;71.58;21070.03;4926818;28;20239;-65
2023/06/26 03:42:34;;;;;;;7.20;6.40;;;;;;;-141.84;71.62;21082.25;4920919;29;20205;-65
2023/06/26 03:45:02;;;;;;;8.18;6.45;;;;;;;-141.84;71.44;21049.72;4928447;29;20205;-65
2023/06/26 03:47:31;;;;;;;6.78;6.18;;;;;;;-141.84;71.43;21090.38;4910519;29;20257;-65
2023/06/26 03:49:59;;;;;;;7.25;6.57;;;;;;;-141.84;71.08;21104.59;4894882;29;20325;-65
2023/06/26 03:52:30;;;;;;;6.68;5.97;;;;;;;-141.84;71.10;21112.72;4890144;29;20249;-65
2023/06/26 03:54:59;;;;;;;7.57;6.85;;;;;;;-141.84;70.68;21110.69;4906297;29;20229;-64
2023/06/26 03:57:27;;;;;;;7.10;6.47;;;;;;;-141.84;70.50;21139.16;4927882;29;20605;-65
2023/06/26 03:59:57;;;;;;;6.63;6.03;;;;;;;-141.84;70.86;21126.97;4928331;28;20708;-65
2023/06/26 04:02:26;;;;;;;6.50;5.93;;;;;;;-141.84;70.62;21129.00;4927391;28;20675;-65
2023/06/26 04:04:55;;;;;;;6.55;5.93;;;;;;;-141.84;70.62;21135.09;4922531;29;20736;-65
2023/06/26 04:07:24;;;;;;;7.72;6.72;;;;;;;-141.84;70.50;21171.69;4927856;29;20601;-64
2023/06/26 04:09:53;;;;;;;6.75;6.15;;;;;;;-141.84;70.82;21114.75;4910156;29;20623;-64
2023/06/26 04:12:21;;;;;;;6.82;6.20;;;;;;;-141.84;70.11;21153.41;4908105;29;20713;-66
2023/06/26 04:14:50;;;;;;;7.05;6.40;;;;;;;-141.84;70.60;21147.28;4900849;29;20316;-65
2023/06/26 04:17:20;;;;;;;7.20;6.50;;;;;;;-141.84;69.88;21163.56;4908641;29;20265;-66
2023/06/26 04:19:49;;;;;;;7.40;6.70;;;;;;;-141.84;69.81;21190.00;4908809;29;20256;-65
2023/06/26 04:22:17;;;;;;;6.68;6.07;;;;;;;-141.84;69.78;21179.81;4906765;29;20281;-65
2023/06/26 04:24:46;;;;;;;7.18;6.57;;;;;;;-141.84;69.72;21224.56;4917723;29;20284;-65
2023/06/26 04:27:14;;;;;;;6.38;5.85;;;;;;;-141.84;69.56;21236.75;4927714;29;20249;-66
2023/06/26 04:29:43;;;;;;;7.07;6.47;;;;;;;-141.84;68.81;21228.63;4927877;29;20229;-65
2023/06/26 04:32:11;;;;;;;6.95;6.32;;;;;;;-141.84;68.54;21240.81;4927106;29;20228;-64
2023/06/26 04:34:43;;;;;;;8.18;6.55;;;;;;;-141.84;67.80;21263.19;4918980;28;20233;-64
2023/06/26 04:37:16;;;;;;;7.18;6.47;;;;;;;-141.84;66.78;21318.06;4927257;29;20324;-65
2023/06/26 04:39:44;;;;;;;7.03;6.32;;;;;;;-141.84;66.83;21326.22;4927075;29;20263;-65
2023/06/26 04:42:13;;;;;;;7.40;6.22;;;;;;;-141.84;66.76;21338.41;4927253;29;20229;-65
2023/06/26 04:44:42;;;;;;;7.10;6.43;;;;;;;-141.84;65.65;21397.38;4901008;29;20305;-65
2023/06/26 04:47:10;;;;;;;6.88;6.20;;;;;;;-141.84;65.02;21464.47;4893631;29;20741;-64
2023/06/26 04:49:45;;;;;;;6.80;6.10;;;;;;;-141.84;65.42;21494.97;4889297;29;20775;-65
2023/06/26 04:52:14;;;;;;;8.90;6.50;;;;;;;-141.84;61.54;21814.19;4888693;29;20678;-64
2023/06/26 04:54:43;;;;;;;6.07;5.57;;;;;;;-141.84;54.63;22351.03;4888815;28;20602;-65
2023/06/26 04:57:12;;;;;;;7.75;5.72;;;;;;;-141.84;48.48;22981.53;4926832;28;20701;-66
2023/06/26 04:59:40;;;;;;;7.05;5.57;;;;;;;-141.84;44.28;23646.72;4926643;28;20312;-65
2023/06/26 05:02:09;;;;;;;5.45;5.00;;;;;;;-141.84;42.37;24086.16;4924947;28;20729;-64
2023/06/26 05:04:37;;;;;;;5.88;5.38;;;;;;;-141.84;39.87;24662.00;4913603;29;20256;-66
2023/06/26 05:07:07;;;;;;;5.70;5.20;;;;;;;-141.84;38.38;25109.69;4907578;29;20233;-64
2023/06/26 05:09:36;;;;;;;5.65;4.82;;;;;;;-141.84;36.89;25683.66;4907560;29;20222;-64
2023/06/26 05:12:05;;;;;;;5.72;4.85;;;;;;;-141.84;35.97;25923.84;4907840;29;20674;-67
2023/06/26 05:14:34;;;;;;;5.82;4.80;;;;;;;-141.84;34.42;26459.22;4900185;29;20674;-65
2023/06/26 05:17:02;;;;;;;6.18;4.97;;;;;;;-141.84;34.87;26326.88;4907493;29;20233;-66
2023/06/26 05:19:31;;;;;;;5.82;5.20;;;;;;;-141.84;34.43;26530.47;4907351;29;20266;-66
2023/06/26 05:22:03;;;;;;;6.07;5.43;;;;;;;-141.84;34.03;26780.88;4906920;29;20261;-65
2023/06/26 05:24:33;;;;;;;5.50;5.00;;;;;;;-141.84;33.91;26670.94;4914467;29;20316;-66
2023/06/26 05:27:02;;;;;;;5.47;4.97;;;;;;;-141.84;34.08;26595.63;4926464;29;20423;-65
2023/06/26 05:29:33;;;;;;;5.25;4.85;;;;;;;-141.84;34.51;26314.69;4926282;29;20328;-64
2023/06/26 05:32:06;;;;;;;5.35;4.85;;;;;;;-141.84;34.15;26461.25;4924896;28;20229;-65
2023/06/26 05:34:35;;;;;;;4.90;4.50;;;;;;;-141.84;33.96;26536.56;4918195;29;20267;-65
2023/06/26 05:37:05;;;;;;;5.68;5.18;;;;;;;-141.84;34.75;26202.72;4924580;29;20233;-65
2023/06/26 05:39:36;;;;;;;5.45;4.85;;;;;;;-141.84;34.98;25976.75;4925788;28;20216;-64
2023/06/26 05:42:05;;;;;;;7.45;5.70;;;;;;;-141.84;35.74;25427.19;4926041;29;20631;-66
2023/06/26 05:44:34;;;;;;;5.55;5.15;;;;;;;-141.84;37.40;24912.28;4918328;29;20252;-66
2023/06/26 05:47:03;;;;;;;6.03;5.47;;;;;;;-141.84;38.95;24326.25;4912302;29;20321;-65
2023/06/26 05:49:31;;;;;;;5.90;5.40;;;;;;;-141.84;41.02;23840.00;4896052;29;20594;-64
2023/06/26 05:52:00;;;;;;;6.35;5.75;;;;;;;-141.84;42.82;23532.78;4893934;29;20790;-64
2023/06/26 05:54:29;;;;;;;6.50;5.90;;;;;;;-141.84;43.83;23315.13;4912354;29;20268;-65
2023/06/26 05:57:00;;;;;;;9.10;6.60;;;;;;;-141.84;44.43;23146.28;4924565;28;20217;-64
2023/06/26 05:59:31;;;;;;;7.15;6.15;;;;;;;-141.84;46.00;23026.28;4925816;29;20319;-65
2023/06/26 06:02:00;;;;;;;7.15;6.03;;;;;;;-141.84;46.54;22946.97;4911270;29;20233;-66
2023/06/26 06:04:28;;;;;;;7.55;5.85;;;;;;;-141.84;46.83;22855.44;4906094;29;20288;-65
2023/06/26 06:06:57;;;;;;;7.05;6.40;;;;;;;-141.84;47.26;22845.25;4904265;29;20276;-65
2023/06/26 06:09:25;;;;;;;8.95;6.63;;;;;;;-141.84;47.41;22804.59;4906377;29;20210;-65
2023/06/26 06:11:54;;;;;;;7.25;6.60;;;;;;;-141.84;47.86;22794.41;4906974;29;20337;-65
2023/06/26 06:14:24;;;;;;;8.43;6.00;;;;;;;-141.84;48.19;22757.81;4906076;29;20757;-65
2023/06/26 06:16:52;;;;;;;7.65;6.57;;;;;;;-141.84;47.91;22798.47;4899079;29;20352;-64
2023/06/26 06:19:21;;;;;;;7.13;6.53;;;;;;;-141.84;48.71;22774.06;4916877;29;20273;-65
2023/06/26 06:21:49;;;;;;;7.72;6.72;;;;;;;-141.84;48.59;22808.66;4911353;28;20249;-63
2023/06/26 06:24:18;;;;;;;7.50;6.80;;;;;;;-141.84;48.67;22818.81;4916766;29;20749;-60
2023/06/26 06:26:46;;;;;;;7.72;6.90;;;;;;;-141.84;47.40;22879.84;4917568;29;20216;-61
2023/06/26 06:29:15;;;;;;;7.68;6.75;;;;;;;-141.84;48.19;22873.75;4924707;29;20586;-60
2023/06/26 06:31:47;;;;;;;7.40;6.70;;;;;;;-141.84;47.65;22816.78;4924973;29;20240;-61
2023/06/26 06:34:16;;;;;;;7.25;6.65;;;;;;;-141.84;47.18;22800.50;4925092;29;20309;-61
2023/06/26 06:36:44;;;;;;;6.53;5.93;;;;;;;-141.84;47.94;22774.06;4919074;28;20253;-60
2023/06/26 06:39:12;;;;;;;8.02;6.65;;;;;;;-141.84;47.96;22816.78;4929328;28;20703;-61
2023/06/26 06:41:41;;;;;;;7.20;6.57;;;;;;;-141.84;48.00;22784.25;4929595;29;20264;-62
2023/06/26 06:44:10;;;;;;;7.10;6.38;;;;;;;-141.84;48.79;22794.41;4929295;29;20345;-61
2023/06/26 06:46:38;;;;;;;8.98;6.72;;;;;;;-141.84;48.62;22792.38;4911671;28;20325;-62
2023/06/26 06:49:10;;;;;;;8.05;6.63;;;;;;;-141.84;48.17;22810.69;4925050;29;20237;-63
2023/06/26 06:51:38;;;;;;;7.07;6.47;;;;;;;-141.84;48.19;22843.22;4919050;28;20289;-63
2023/06/26 06:54:07;;;;;;;7.47;6.85;;;;;;;-141.84;48.60;22804.59;4906345;29;20282;-64
2023/06/26 06:56:35;;;;;;;7.28;6.30;;;;;;;-141.84;48.91;22814.75;4909296;29;20326;-64
2023/06/26 06:59:04;;;;;;;6.70;6.07;;;;;;;-141.84;48.40;22818.81;4909187;29;20272;-64
2023/06/26 07:01:33;;;;;;;8.32;6.60;;;;;;;-141.84;47.74;22871.72;4916794;29;20254;-64
2023/06/26 07:04:03;;;;;;;7.43;6.72;;;;;;;-141.84;47.60;22849.34;4910716;29;20225;-63
2023/06/26 07:06:34;;;;;;;7.47;6.70;;;;;;;-141.84;47.98;22908.31;4885588;28;20291;-65
2023/06/26 07:09:02;;;;;;;8.35;6.75;;;;;;;-141.84;47.96;22924.59;4927038;29;20221;-64
2023/06/26 07:11:31;;;;;;;10.60;7.10;;;;;;;-141.84;47.30;22932.72;4928297;28;20244;-64
2023/06/26 07:14:00;;;;;;;11.45;6.80;;;;;;;-141.84;47.86;22918.50;4927841;29;20665;-64
2023/06/26 07:16:28;;;;;;;7.28;6.68;;;;;;;-141.84;48.33;22861.53;4918337;29;20287;-66
2023/06/26 07:18:57;;;;;;;7.40;6.70;;;;;;;-141.84;48.53;22900.19;4928306;29;20237;-65
2023/06/26 07:21:25;;;;;;;8.02;7.22;;;;;;;-141.84;48.51;22918.50;4925386;29;20238;-64
2023/06/26 07:23:55;;;;;;;7.85;7.05;;;;;;;-141.84;48.19;22993.75;4919531;29;20662;-66
2023/06/26 07:26:24;;;;;;;7.43;6.78;;;;;;;-141.84;47.83;22991.72;4921672;29;20205;-65
2023/06/26 07:28:56;;;;;;;7.10;6.40;;;;;;;-141.84;47.84;22983.56;4929195;28;20225;-65
2023/06/26 07:31:24;;;;;;;7.68;6.68;;;;;;;-141.84;47.83;23048.66;4927632;29;20236;-63
2023/06/26 07:33:53;;;;;;;7.85;6.68;;;;;;;-141.84;47.34;23048.66;4912555;29;20237;-62
2023/06/26 07:36:22;;;;;;;11.70;7.22;;;;;;;-141.84;47.55;23060.88;4902636;29;20309;-62
2023/06/26 07:38:50;;;;;;;7.20;6.50;;;;;;;-141.84;47.21;23030.34;4909793;29;20662;-69
2023/06/26 07:41:20;;;;;;;8.57;7.22;;;;;;;-141.84;47.59;22985.59;4928137;28;20296;-68
2023/06/26 07:43:49;;;;;;;9.75;6.68;;;;;;;-141.84;46.53;23050.69;4927761;29;20260;-68
2023/06/26 07:46:17;;;;;;;7.82;7.03;;;;;;;-141.84;46.86;23003.91;4919680;29;20328;-64
2023/06/26 07:48:46;;;;;;;7.35;6.60;;;;;;;-141.84;47.55;23036.47;4927461;29;20248;-68
2023/06/26 07:51:15;;;;;;;7.70;6.88;;;;;;;-141.84;47.63;23042.56;4927383;29;20425;-67
2023/06/26 07:53:44;;;;;;;7.65;6.95;;;;;;;-141.84;47.99;23014.09;4928053;29;20304;-69
2023/06/26 07:56:12;;;;;;;7.47;6.72;;;;;;;-141.84;46.43;23062.91;4912455;29;20230;-69
2023/06/26 07:58:42;;;;;;;8.15;6.22;;;;;;;-141.84;47.27;23071.03;4908053;29;20258;-67
2023/06/26 08:01:11;;;;;;;10.60;6.90;;;;;;;-141.84;46.88;23058.84;4908317;29;20225;-65
2023/06/26 08:03:39;;;;;;;7.65;6.95;;;;;;;-141.84;46.20;23056.81;4908687;29;20222;-63
2023/06/26 08:06:08;;;;;;;7.88;6.68;;;;;;;-141.84;46.81;23038.50;4906828;29;20225;-63
2023/06/26 08:08:40;;;;;;;8.38;7.10;;;;;;;-141.84;46.88;23050.69;4908671;29;20313;-65
2023/06/26 08:11:08;;;;;;;6.93;6.10;;;;;;;-141.84;45.90;23113.75;4908450;29;20310;-66
2023/06/26 08:13:37;;;;;;;7.20;6.43;;;;;;;-141.84;46.21;23075.09;4913132;29;20316;-69
2023/06/26 08:16:07;;;;;;;7.57;6.75;;;;;;;-141.84;47.35;23046.63;4909768;28;20246;-66
2023/06/26 08:18:35;;;;;;;6.53;5.97;;;;;;;-141.84;46.43;23117.81;4922337;29;20304;-66
2023/06/26 08:21:04;;;;;;;9.30;6.95;;;;;;;-141.84;46.62;23123.94;4926800;29;20223;-65
2023/06/26 08:23:32;;;;;;;7.85;7.10;;;;;;;-141.84;46.68;23064.94;4927479;29;20248;-66
2023/06/26 08:26:01;;;;;;;7.63;6.78;;;;;;;-141.84;47.19;23026.28;4899022;28;20226;-66
2023/06/26 08:28:29;;;;;;;9.02;7.15;;;;;;;-141.84;47.28;23087.31;4881682;29;20754;-66
2023/06/26 08:30:59;;;;;;;7.60;6.97;;;;;;;-141.84;47.07;23111.72;4888995;29;20274;-67
2023/06/26 08:33:29;;;;;;;7.47;6.78;;;;;;;-141.84;46.97;23099.50;4876966;29;20232;-68
2023/06/26 08:35:58;;;;;;;7.60;6.90;;;;;;;-141.84;46.28;23125.97;4870760;29;20331;-73
2023/06/26 08:38:26;;;;;;;9.20;6.88;;;;;;;-141.84;46.54;23087.31;4863843;29;20247;-66
2023/06/26 08:40:55;;;;;;;7.38;6.68;;;;;;;-141.84;47.20;23140.19;4885480;28;20316;-67
2023/06/26 08:43:23;;;;;;;10.13;7.03;;;;;;;-141.84;47.00;23178.84;4907567;28;20297;-66
2023/06/26 08:45:52;;;;;;;7.38;6.70;;;;;;;-141.84;45.18;23296.81;4908006;28;20329;-66
2023/06/26 08:48:22;;;;;;;9.60;7.13;;;;;;;-141.84;45.17;23274.44;4899744;28;20234;-68
2023/06/26 08:50:55;;;;;;;7.45;6.78;;;;;;;-141.84;45.62;23262.25;4908540;28;20292;-68
2023/06/26 08:53:30;;;;;;;7.15;6.45;;;;;;;-141.84;45.74;23250.03;4907708;28;20304;-67
2023/06/26 08:56:00;;;;;;;7.82;6.30;;;;;;;-141.84;45.43;23233.75;4902545;28;20265;-67
2023/06/26 08:58:29;;;;;;;7.00;6.32;;;;;;;-141.84;44.92;23282.59;4881512;29;20555;-67
2023/06/26 09:00:58;;;;;;;8.02;6.90;;;;;;;-141.84;44.80;23298.84;4887787;29;20297;-63
2023/06/26 09:03:27;;;;;;;7.20;6.50;;;;;;;-141.84;44.31;23329.38;4876004;29;20590;-64
2023/06/26 09:05:57;;;;;;;6.95;6.32;;;;;;;-141.84;43.36;23355.81;4870024;29;20540;-65
2023/06/26 09:08:25;;;;;;;6.90;6.18;;;;;;;-141.84;43.80;23368.03;4873081;29;20219;-68
2023/06/26 09:10:54;;;;;;;8.98;6.63;;;;;;;-141.84;43.51;23412.78;4887796;29;20231;-67
2023/06/26 09:13:23;;;;;;;6.97;6.38;;;;;;;-141.84;43.66;23390.41;4891667;29;20605;-60
2023/06/26 09:15:58;;;;;;;7.00;6.30;;;;;;;-141.84;43.92;23343.63;4890488;29;20242;-61
2023/06/26 09:18:27;;;;;;;7.78;6.03;;;;;;;-141.84;43.27;23400.56;4880650;29;20245;-63
2023/06/26 09:20:57;;;;;;;6.43;5.82;;;;;;;-141.84;42.81;23398.53;4888236;29;20427;-64
2023/06/26 09:23:25;;;;;;;6.57;5.97;;;;;;;-141.84;42.54;23479.91;4888119;29;20202;-63
2023/06/26 09:25:54;;;;;;;7.18;6.15;;;;;;;-141.84;42.68;23457.53;4887973;28;20266;-61
2023/06/26 09:28:23;;;;;;;6.30;5.75;;;;;;;-141.84;42.28;23486.00;4880226;29;20801;-69
2023/06/26 09:30:52;;;;;;;6.85;6.20;;;;;;;-141.84;42.25;23504.31;4888726;29;20262;-65
2023/06/26 09:33:22;;;;;;;6.78;6.07;;;;;;;-141.84;42.44;23628.41;4876949;29;20490;-63
2023/06/26 09:35:51;;;;;;;8.52;6.28;;;;;;;-141.84;41.85;23591.78;4869785;29;20227;-62
2023/06/26 09:38:21;;;;;;;6.28;5.78;;;;;;;-141.84;41.26;23636.53;4862710;29;20222;-62
2023/06/26 09:40:50;;;;;;;7.45;5.90;;;;;;;-141.84;42.29;23575.50;4869586;29;20277;-64
2023/06/26 09:43:20;;;;;;;10.30;5.97;;;;;;;-141.84;41.36;23569.41;4869044;29;20239;-64
2023/06/26 09:45:48;;;;;;;6.13;5.63;;;;;;;-141.84;41.04;23595.84;4868700;29;20318;-64
2023/06/26 09:48:18;;;;;;;7.35;5.57;;;;;;;-141.84;40.55;23660.97;4861777;29;20239;-62
2023/06/26 09:50:48;;;;;;;6.07;5.47;;;;;;;-141.84;41.01;23726.06;4869596;29;20215;-65
2023/06/26 09:53:38;;;;;;;5.97;5.47;;;;;;;-141.84;41.22;23774.88;4869473;29;20227;-64
2023/06/26 09:56:07;;;;;;;7.68;6.45;;;;;;;-141.84;41.29;23738.25;4875790;29;20695;-64
2023/06/26 09:58:38;;;;;;;6.30;5.80;;;;;;;-141.84;40.76;23754.53;4884800;29;20836;-64
2023/06/26 10:01:09;;;;;;;6.43;5.82;;;;;;;-141.84;41.36;23770.81;4897346;28;20288;-69
2023/06/26 10:03:38;;;;;;;7.32;5.90;;;;;;;-141.84;41.18;23724.03;4885655;29;20273;-67
2023/06/26 10:06:09;;;;;;;6.10;5.53;;;;;;;-141.84;41.12;23711.81;4869025;29;20207;-63
2023/06/26 10:08:41;;;;;;;6.50;5.90;;;;;;;-141.84;39.96;23835.91;4886520;29;20297;-64
2023/06/26 10:11:17;;;;;;;5.85;5.40;;;;;;;-141.84;40.24;23819.66;4887488;29;20342;-67
2023/06/26 10:13:48;;;;;;;6.22;5.72;;;;;;;-141.84;40.74;23813.53;4893773;29;20233;-67
2023/06/26 10:16:23;;;;;;;11.35;6.13;;;;;;;-141.84;39.75;23840.00;4861687;29;20250;-68
2023/06/26 10:18:57;;;;;;;6.38;5.88;;;;;;;-141.84;39.96;23890.84;4868450;29;20637;-67
2023/06/26 10:21:30;;;;;;;6.20;5.60;;;;;;;-141.84;39.10;23919.34;4869133;29;20270;-68
2023/06/26 10:24:01;;;;;;;6.35;5.85;;;;;;;-141.84;38.89;23976.31;4868756;29;20655;-67
2023/06/26 10:26:32;;;;;;;6.82;5.80;;;;;;;-141.84;39.25;23929.50;4861769;29;20223;-67
2023/06/26 10:29:00;;;;;;;5.93;5.43;;;;;;;-141.84;40.01;23933.56;4868558;29;20337;-67
2023/06/26 10:31:31;;;;;;;6.18;5.68;;;;;;;-141.84;39.54;24000.72;4868534;29;20259;-67
2023/06/26 10:34:00;;;;;;;6.25;5.70;;;;;;;-141.84;38.28;24118.72;4875481;29;20265;-66
2023/06/26 10:36:31;;;;;;;6.20;5.60;;;;;;;-141.84;38.52;24189.94;4880231;29;21074;-67
2023/06/26 10:39:07;;;;;;;6.20;5.60;;;;;;;-141.84;37.95;24175.69;4887804;29;20211;-65
2023/06/26 10:41:42;;;;;;;8.20;5.72;;;;;;;-141.84;37.29;24202.13;4887834;29;20210;-67
2023/06/26 10:44:28;;;;;;;6.28;5.68;;;;;;;-141.84;37.96;24218.41;4898750;29;20259;-67
2023/06/26 10:46:58;;;;;;;5.57;5.18;;;;;;;-141.84;36.96;24295.72;4905138;28;20614;-66
2023/06/26 10:49:29;;;;;;;6.35;5.85;;;;;;;-141.84;37.16;24330.31;4918528;28;20709;-67
2023/06/26 10:52:02;;;;;;;5.78;5.30;;;;;;;-141.84;36.03;24466.66;4924684;28;20648;-67
2023/06/26 10:54:33;;;;;;;5.68;5.28;;;;;;;-141.84;36.37;24456.47;4918204;28;20233;-66
2023/06/26 10:57:03;;;;;;;6.32;5.72;;;;;;;-141.84;36.79;24421.88;4911303;29;20236;-67
2023/06/26 10:59:32;;;;;;;6.03;5.53;;;;;;;-141.84;37.07;24430.03;4906237;29;20679;-67
2023/06/26 11:02:02;;;;;;;5.90;5.40;;;;;;;-141.84;36.56;24476.81;4903635;29;20271;-68
2023/06/26 11:04:40;;;;;;;5.75;5.28;;;;;;;-141.84;37.00;24503.28;4881537;29;20269;-67
2023/06/26 11:07:21;;;;;;;5.72;5.22;;;;;;;-141.84;37.01;24517.53;4878837;29;20238;-67
2023/06/26 11:09:59;;;;;;;6.20;5.60;;;;;;;-141.84;36.19;24531.75;4876150;29;20235;-66
2023/06/26 11:12:38;;;;;;;6.72;6.03;;;;;;;-141.84;35.96;24609.09;4874333;29;20318;-67
2023/06/26 11:15:10;;;;;;;5.90;5.40;;;;;;;-141.84;36.03;24541.94;4890731;29;20273;-64
2023/06/26 11:17:39;;;;;;;5.30;4.90;;;;;;;-141.84;36.44;24523.63;4887215;29;20272;-64
2023/06/26 11:20:10;;;;;;;6.05;5.55;;;;;;;-141.84;36.10;24554.16;4884679;29;20269;-66
2023/06/26 11:22:39;;;;;;;6.40;5.90;;;;;;;-141.84;36.89;24434.09;4887754;29;20297;-66
2023/06/26 11:25:11;;;;;;;6.30;5.75;;;;;;;-141.84;37.12;24352.69;4889960;29;20668;-67
2023/06/26 11:27:40;;;;;;;6.30;5.80;;;;;;;-141.84;37.61;24362.88;4888603;29;20373;-67